createdAt,value
2023-03-29T00:01:35.075Z,0.88
2023-03-29T00:04:08.220Z,0.43
2023-03-29T00:06:41.929Z,0.85
2023-03-29T00:09:13.786Z,0.50
2023-03-29T00:11:45.326Z,1.00
2023-03-29T00:14:17.255Z,0.75
2023-03-29T00:16:48.895Z,0.60
2023-03-29T00:19:20.516Z,0.43
2023-03-29T00:21:52.021Z,0.40
2023-03-29T00:24:23.889Z,1.10
2023-03-29T00:26:55.443Z,0.57
2023-03-29T00:29:27.178Z,0.60
2023-03-29T00:31:58.755Z,0.75
2023-03-29T00:34:31.199Z,0.80
2023-03-29T00:37:02.724Z,1.13
2023-03-29T00:39:34.581Z,1.23
2023-03-29T00:42:06.125Z,0.80
2023-03-29T00:44:37.848Z,0.38
2023-03-29T00:47:09.382Z,0.52
2023-03-29T00:49:41.933Z,0.63
2023-03-29T00:52:13.451Z,0.47
2023-03-29T00:54:45.205Z,0.40
2023-03-29T00:57:16.842Z,0.60
2023-03-29T00:59:48.723Z,0.50
2023-03-29T01:02:22.081Z,0.60
2023-03-29T01:04:53.997Z,0.30
2023-03-29T01:07:25.490Z,0.40
2023-03-29T01:09:57.287Z,0.45
2023-03-29T01:12:28.895Z,0.40
2023-03-29T01:15:00.512Z,0.77
2023-03-29T01:17:33.195Z,1.02
2023-03-29T01:22:42.799Z,0.55
2023-03-29T01:25:14.299Z,0.87
2023-03-29T01:27:46.031Z,1.15
2023-03-29T01:30:17.549Z,0.85
2023-03-29T01:32:50.802Z,0.57
2023-03-29T01:35:22.397Z,1.10
2023-03-29T01:37:56.680Z,0.50
2023-03-29T01:40:28.304Z,0.70
2023-03-29T01:43:00.035Z,0.82
2023-03-29T01:45:31.543Z,0.70
2023-03-29T01:48:03.788Z,0.55
2023-03-29T01:50:35.432Z,0.75
2023-03-29T01:53:06.995Z,1.15
2023-03-29T01:55:38.540Z,0.93
2023-03-29T01:58:10.393Z,0.63
2023-03-29T02:00:42.169Z,0.70
2023-03-29T02:03:15.210Z,0.90
2023-03-29T02:05:46.826Z,0.55
2023-03-29T02:08:18.616Z,0.77
2023-03-29T02:10:50.327Z,0.30
2023-03-29T02:13:22.582Z,0.50
2023-03-29T02:15:54.609Z,1.02
2023-03-29T02:18:26.586Z,0.85
2023-03-29T02:20:58.898Z,0.50
2023-03-29T02:23:30.621Z,0.65
2023-03-29T02:26:02.183Z,0.40
2023-03-29T02:28:34.122Z,0.90
2023-03-29T02:31:05.726Z,0.83
2023-03-29T02:33:37.634Z,0.68
2023-03-29T02:36:10.285Z,0.90
2023-03-29T02:41:13.803Z,0.80
2023-03-29T02:43:46.131Z,1.17
2023-03-29T02:46:17.724Z,0.73
2023-03-29T02:48:49.260Z,0.65
2023-03-29T02:51:20.875Z,1.02
2023-03-29T02:53:52.402Z,0.80
2023-03-29T02:56:23.931Z,0.40
2023-03-29T02:58:55.486Z,0.60
2023-03-29T03:01:27.026Z,0.45
2023-03-29T03:03:58.637Z,1.27
2023-03-29T03:06:30.165Z,0.73
2023-03-29T03:09:02.395Z,1.20
2023-03-29T03:11:33.950Z,0.60
2023-03-29T03:14:07.156Z,0.68
2023-03-29T03:16:38.844Z,0.75
2023-03-29T03:19:10.473Z,0.47
2023-03-29T03:21:42.010Z,0.38
2023-03-29T03:24:13.863Z,1.25
2023-03-29T03:26:46.347Z,0.77
2023-03-29T03:29:18.223Z,0.50
2023-03-29T03:31:51.280Z,0.63
2023-03-29T03:34:24.103Z,0.60
2023-03-29T03:36:55.661Z,0.50
2023-03-29T03:39:27.632Z,0.93
2023-03-29T03:41:59.170Z,0.93
2023-03-29T03:44:31.327Z,0.82
2023-03-29T03:47:02.834Z,1.17
2023-03-29T03:49:34.751Z,0.70
2023-03-29T03:52:06.513Z,0.83
2023-03-29T03:54:38.122Z,0.98
2023-03-29T03:57:09.741Z,0.85
2023-03-29T03:59:41.677Z,1.25
2023-03-29T04:02:13.234Z,1.10
2023-03-29T04:04:45.120Z,0.70
2023-03-29T04:07:17.804Z,1.30
2023-03-29T04:12:21.503Z,0.90
2023-03-29T04:14:53.431Z,1.30
2023-03-29T04:17:24.984Z,1.00
2023-03-29T04:19:57.525Z,1.02
2023-03-29T04:22:29.321Z,1.10
2023-03-29T04:25:01.063Z,0.80
2023-03-29T04:27:32.561Z,1.50
2023-03-29T04:30:04.108Z,0.75
2023-03-29T04:32:35.802Z,1.00
2023-03-29T04:35:08.348Z,1.17
2023-03-29T04:37:40.452Z,1.25
2023-03-29T04:40:14.533Z,0.95
2023-03-29T04:42:47.226Z,1.13
2023-03-29T04:47:50.879Z,1.15
2023-03-29T04:50:22.534Z,0.88
2023-03-29T04:52:54.056Z,0.90
2023-03-29T04:55:26.175Z,1.40
2023-03-29T04:57:58.165Z,0.70
2023-03-29T05:00:31.730Z,1.48
2023-03-29T05:03:04.462Z,1.10
2023-03-29T05:05:36.468Z,0.90
2023-03-29T05:08:09.444Z,1.23
2023-03-29T05:10:41.455Z,1.05
2023-03-29T05:13:12.966Z,1.30
2023-03-29T05:15:44.512Z,1.92
2023-03-29T05:18:16.009Z,1.20
2023-03-29T05:20:47.530Z,0.93
2023-03-29T05:23:19.066Z,0.80
2023-03-29T05:25:50.881Z,1.35
2023-03-29T05:28:22.488Z,1.00
2023-03-29T05:30:54.792Z,0.98
2023-03-29T05:33:26.302Z,1.30
2023-03-29T05:35:57.845Z,1.23
2023-03-29T05:38:30.162Z,1.95
2023-03-29T05:41:01.920Z,2.05
2023-03-29T05:43:33.700Z,1.05
2023-03-29T05:46:06.487Z,0.95
2023-03-29T05:51:09.839Z,1.00
2023-03-29T05:53:41.702Z,1.40
2023-03-29T05:56:16.225Z,1.40
2023-03-29T05:58:50.437Z,1.05
2023-03-29T06:01:22.877Z,0.88
2023-03-29T06:03:54.732Z,1.03
2023-03-29T06:06:26.770Z,1.35
2023-03-29T06:08:59.098Z,1.83
2023-03-29T06:11:31.941Z,0.98
2023-03-29T06:14:03.633Z,0.68
2023-03-29T06:16:36.333Z,0.70
2023-03-29T06:21:39.775Z,2.00
2023-03-29T06:24:11.640Z,1.52
2023-03-29T06:26:43.180Z,1.08
2023-03-29T06:29:15.086Z,0.70
2023-03-29T06:31:46.705Z,1.10
2023-03-29T06:34:18.691Z,1.08
2023-03-29T06:36:51.065Z,0.80
2023-03-29T06:39:22.627Z,1.40
2023-03-29T06:41:55.466Z,0.80
2023-03-29T06:46:59.931Z,1.23
2023-03-29T06:49:33.296Z,1.08
2023-03-29T06:52:04.808Z,1.33
2023-03-29T06:54:36.640Z,0.77
2023-03-29T06:57:08.251Z,1.13
2023-03-29T06:59:40.119Z,0.98
2023-03-29T07:02:12.438Z,0.93
2023-03-29T07:04:44.933Z,1.30
2023-03-29T07:07:22.515Z,1.30
2023-03-29T07:09:54.098Z,1.25
2023-03-29T07:12:26.402Z,0.88
2023-03-29T07:14:58.492Z,1.35
2023-03-29T07:17:30.082Z,0.85
2023-03-29T07:20:02.468Z,1.05
2023-03-29T07:22:34.012Z,1.10
2023-03-29T07:25:05.858Z,1.15
2023-03-29T07:27:37.756Z,0.95
2023-03-29T07:30:12.483Z,1.17
2023-03-29T07:32:44.595Z,0.90
2023-03-29T07:35:17.570Z,0.75
2023-03-29T07:40:24.231Z,1.33
2023-03-29T07:42:56.730Z,1.00
2023-03-29T07:45:29.364Z,1.30
2023-03-29T07:48:01.213Z,1.27
2023-03-29T07:50:33.002Z,0.90
2023-03-29T07:53:04.518Z,0.80
2023-03-29T07:55:36.124Z,1.20
2023-03-29T07:58:07.903Z,1.00
2023-03-29T08:00:39.796Z,0.90
2023-03-29T08:03:11.712Z,0.93
2023-03-29T08:05:43.610Z,1.03
2023-03-29T08:08:15.362Z,1.00
2023-03-29T08:10:46.889Z,0.98
2023-03-29T08:13:18.411Z,1.17
2023-03-29T08:15:50.484Z,1.33
2023-03-29T08:18:21.965Z,1.10
2023-03-29T08:20:53.885Z,1.10
2023-03-29T08:23:25.549Z,1.15
2023-03-29T08:25:57.239Z,0.73
2023-03-29T08:28:29.128Z,1.00
2023-03-29T08:31:01.374Z,0.95
2023-03-29T08:33:33.096Z,0.80
2023-03-29T08:36:05.078Z,1.08
2023-03-29T08:38:36.641Z,1.37
2023-03-29T08:41:09.194Z,0.70
2023-03-29T08:43:40.747Z,0.93
2023-03-29T08:46:12.680Z,0.70
2023-03-29T08:48:44.300Z,0.77
2023-03-29T08:51:16.065Z,0.77
2023-03-29T08:53:47.648Z,0.93
2023-03-29T08:56:19.618Z,0.70
2023-03-29T08:58:51.120Z,1.15
2023-03-29T09:01:23.101Z,0.80
2023-03-29T09:03:54.675Z,0.80
2023-03-29T09:06:26.812Z,1.08
2023-03-29T09:08:58.401Z,0.70
2023-03-29T09:11:29.925Z,0.90
2023-03-29T09:14:01.441Z,1.08
2023-03-29T09:16:33.022Z,0.73
2023-03-29T09:19:04.576Z,1.00
2023-03-29T09:21:36.956Z,0.93
2023-03-29T09:24:08.605Z,1.15
2023-03-29T09:26:41.006Z,1.17
2023-03-29T09:29:13.121Z,1.05
2023-03-29T09:31:45.071Z,1.02
2023-03-29T09:34:17.702Z,0.90
2023-03-29T09:36:49.590Z,0.80
2023-03-29T09:39:21.212Z,0.98
2023-03-29T09:41:52.765Z,0.90
2023-03-29T09:44:30.724Z,0.85
2023-03-29T09:47:03.298Z,0.90
2023-03-29T09:49:34.810Z,0.90
2023-03-29T09:52:06.968Z,1.00
2023-03-29T09:54:38.492Z,1.00
2023-03-29T09:57:10.084Z,0.88
2023-03-29T09:59:41.637Z,1.10
2023-03-29T10:02:13.875Z,0.63
2023-03-29T10:04:45.372Z,0.93
2023-03-29T10:07:18.152Z,1.10
2023-03-29T10:09:50.534Z,1.10
2023-03-29T10:12:23.437Z,0.80
2023-03-29T10:17:28.296Z,1.27
2023-03-29T10:20:01.563Z,1.00
2023-03-29T10:22:37.988Z,1.30
2023-03-29T10:25:09.712Z,0.98
2023-03-29T10:27:41.613Z,1.00
2023-03-29T10:30:13.235Z,0.95
2023-03-29T10:32:44.979Z,0.80
2023-03-29T10:35:16.855Z,1.00
2023-03-29T10:37:48.373Z,0.80
2023-03-29T10:40:21.850Z,0.93
2023-03-29T10:42:57.773Z,1.13
2023-03-29T10:45:29.760Z,0.98
2023-03-29T10:48:01.422Z,1.00
2023-03-29T10:50:37.185Z,1.00
2023-03-29T10:53:08.718Z,0.88
2023-03-29T10:55:41.346Z,1.35
2023-03-29T10:58:13.432Z,1.38
2023-03-29T11:00:44.954Z,1.00
2023-03-29T11:03:18.109Z,1.02
2023-03-29T11:05:51.430Z,0.77
2023-03-29T11:08:22.918Z,0.88
2023-03-29T11:10:54.502Z,0.98
2023-03-29T11:13:26.024Z,1.02
2023-03-29T11:15:57.617Z,1.00
2023-03-29T11:18:29.206Z,1.17
2023-03-29T11:21:00.916Z,0.98
2023-03-29T11:23:32.553Z,1.20
2023-03-29T11:26:04.460Z,1.00
2023-03-29T11:28:36.297Z,0.90
2023-03-29T11:31:08.224Z,1.17
2023-03-29T11:33:39.762Z,0.83
2023-03-29T11:36:11.698Z,1.00
2023-03-29T11:38:45.186Z,1.08
2023-03-29T11:41:17.724Z,0.90
2023-03-29T11:43:49.293Z,1.00
2023-03-29T11:46:21.263Z,1.15
2023-03-29T11:48:52.934Z,1.17
2023-03-29T11:51:24.814Z,1.38
2023-03-29T11:53:56.933Z,1.20
2023-03-29T11:56:29.633Z,1.30
2023-03-29T11:59:01.442Z,1.50
2023-03-29T12:01:33.282Z,1.40
2023-03-29T12:04:04.935Z,1.48
2023-03-29T12:06:37.284Z,1.50
2023-03-29T12:09:08.768Z,1.47
2023-03-29T12:11:40.882Z,1.40
2023-03-29T12:14:12.360Z,1.65
2023-03-29T12:16:43.933Z,1.20
2023-03-29T12:19:16.486Z,1.35
2023-03-29T12:21:48.278Z,1.33
2023-03-29T12:24:19.806Z,1.33
2023-03-29T12:26:52.083Z,1.55
2023-03-29T12:29:23.584Z,1.10
2023-03-29T12:31:55.196Z,1.42
2023-03-29T12:34:26.872Z,1.30
2023-03-29T12:37:00.474Z,1.25
2023-03-29T12:39:33.327Z,1.25
2023-03-29T12:44:36.764Z,0.75
2023-03-29T12:47:08.874Z,1.08
2023-03-29T12:49:40.885Z,1.00
2023-03-29T12:52:12.849Z,1.30
2023-03-29T12:54:44.366Z,1.10
2023-03-29T12:57:16.204Z,1.08
2023-03-29T12:59:47.720Z,1.63
2023-03-29T13:02:19.314Z,1.02
2023-03-29T13:04:51.103Z,0.95
2023-03-29T13:07:23.064Z,1.02
2023-03-29T13:09:54.706Z,1.30
2023-03-29T13:12:32.166Z,1.20
2023-03-29T13:15:05.453Z,1.10
2023-03-29T13:17:37.393Z,1.17
2023-03-29T13:20:09.403Z,1.30
2023-03-29T13:22:41.189Z,1.30
2023-03-29T13:25:12.720Z,0.80
2023-03-29T13:27:44.272Z,1.55
2023-03-29T13:30:15.784Z,0.75
2023-03-29T13:32:47.412Z,1.20
2023-03-29T13:35:19.057Z,1.15
2023-03-29T13:37:53.168Z,0.90
2023-03-29T13:40:24.717Z,1.23
2023-03-29T13:42:56.264Z,1.00
2023-03-29T13:45:27.765Z,0.90
2023-03-29T13:48:05.142Z,0.88
2023-03-29T13:50:37.197Z,1.15
2023-03-29T13:53:09.352Z,1.35
2023-03-29T13:55:40.865Z,0.90
2023-03-29T13:58:12.678Z,0.95
2023-03-29T14:00:44.220Z,1.38
2023-03-29T14:03:16.409Z,0.73
2023-03-29T14:05:47.953Z,1.00
2023-03-29T14:08:19.467Z,1.10
2023-03-29T14:10:51.229Z,0.98
2023-03-29T14:13:22.898Z,0.93
2023-03-29T14:15:54.794Z,1.02
2023-03-29T14:18:26.897Z,1.00
2023-03-29T14:20:58.398Z,1.10
2023-03-29T14:23:33.344Z,1.35
2023-03-29T14:26:05.460Z,1.42
2023-03-29T14:28:37.898Z,1.20
2023-03-29T14:31:09.621Z,1.13
2023-03-29T14:33:41.889Z,1.25
2023-03-29T14:36:14.147Z,1.65
2023-03-29T14:38:46.263Z,1.15
2023-03-29T14:41:18.098Z,0.90
2023-03-29T14:43:49.623Z,1.27
2023-03-29T14:46:21.210Z,1.25
2023-03-29T14:48:53.075Z,1.10
2023-03-29T14:51:30.204Z,1.02
2023-03-29T14:54:02.879Z,1.42
2023-03-29T14:56:34.408Z,1.30
2023-03-29T14:59:05.976Z,1.30
2023-03-29T15:01:37.543Z,1.75
2023-03-29T15:04:09.216Z,1.27
2023-03-29T15:06:41.315Z,1.50
2023-03-29T15:09:12.861Z,1.30
2023-03-29T15:11:44.413Z,1.48
2023-03-29T15:14:16.046Z,1.00
2023-03-29T15:16:47.916Z,1.60
2023-03-29T15:19:19.549Z,1.60
2023-03-29T15:21:51.488Z,1.35
2023-03-29T15:24:23.092Z,1.60
2023-03-29T15:26:54.657Z,1.63
2023-03-29T15:29:26.377Z,1.77
2023-03-29T15:31:59.036Z,2.00
2023-03-29T15:34:30.816Z,1.55
2023-03-29T15:37:02.583Z,1.63
2023-03-29T15:39:34.934Z,0.90
2023-03-29T15:42:06.958Z,1.75
2023-03-29T15:44:38.474Z,1.13
2023-03-29T15:47:10.197Z,1.77
2023-03-29T15:49:41.943Z,1.52
2023-03-29T15:52:13.512Z,1.60
2023-03-29T15:54:45.073Z,1.73
2023-03-29T15:57:16.951Z,1.52
2023-03-29T15:59:48.623Z,1.50
2023-03-29T16:02:22.074Z,1.30
2023-03-29T16:04:53.665Z,1.67
2023-03-29T16:07:25.374Z,1.77
2023-03-29T16:09:57.827Z,1.38
2023-03-29T16:12:29.717Z,1.35
2023-03-29T16:17:34.360Z,1.88
2023-03-29T16:20:06.042Z,1.67
2023-03-29T16:22:37.876Z,1.58
2023-03-29T16:25:09.475Z,1.42
2023-03-29T16:27:41.056Z,1.88
2023-03-29T16:30:12.656Z,1.55
2023-03-29T16:32:44.600Z,1.08
2023-03-29T16:35:16.267Z,1.40
2023-03-29T16:37:48.134Z,1.45
2023-03-29T16:40:21.009Z,2.20
2023-03-29T16:45:24.386Z,1.55
2023-03-29T16:47:56.180Z,1.05
2023-03-29T16:50:27.781Z,1.60
2023-03-29T16:52:59.393Z,1.42
2023-03-29T16:55:30.921Z,1.70
2023-03-29T16:58:02.709Z,1.10
2023-03-29T17:00:34.319Z,1.08
2023-03-29T17:03:07.096Z,1.60
2023-03-29T17:05:41.581Z,1.75
2023-03-29T17:08:13.673Z,1.20
2023-03-29T17:10:45.214Z,1.52
2023-03-29T17:13:17.054Z,1.45
2023-03-29T17:15:48.607Z,1.42
2023-03-29T17:18:20.569Z,1.85
2023-03-29T17:20:52.090Z,1.10
2023-03-29T17:23:24.021Z,1.60
2023-03-29T17:25:55.974Z,1.67
2023-03-29T17:28:27.804Z,1.53
2023-03-29T17:30:59.468Z,1.40
2023-03-29T17:33:31.505Z,1.17
2023-03-29T17:36:03.406Z,1.63
2023-03-29T17:38:35.572Z,1.77
2023-03-29T17:41:08.230Z,1.70
2023-03-29T17:43:40.200Z,1.55
2023-03-29T17:46:11.895Z,1.30
2023-03-29T17:48:43.861Z,1.70
2023-03-29T17:51:15.374Z,1.85
2023-03-29T17:53:47.308Z,1.77
2023-03-29T17:56:20.245Z,1.35
2023-03-29T18:01:23.909Z,1.92
2023-03-29T18:03:55.482Z,1.88
2023-03-29T18:06:27.007Z,1.60
2023-03-29T18:09:01.397Z,1.60
2023-03-29T18:11:33.029Z,1.88
2023-03-29T18:14:05.268Z,1.80
2023-03-29T18:16:36.842Z,2.63
2023-03-29T18:19:10.702Z,2.15
2023-03-29T18:21:42.256Z,1.65
2023-03-29T18:24:14.133Z,1.63
2023-03-29T18:26:45.716Z,1.77
2023-03-29T18:29:17.746Z,1.70
2023-03-29T18:31:49.318Z,2.07
2023-03-29T18:34:22.098Z,2.55
2023-03-29T18:36:53.662Z,2.22
2023-03-29T18:39:25.533Z,1.80
2023-03-29T18:41:57.069Z,1.70
2023-03-29T18:44:28.694Z,1.90
2023-03-29T18:47:00.354Z,1.80
2023-03-29T18:49:32.586Z,1.88
2023-03-29T18:52:05.733Z,1.92
2023-03-29T18:54:37.489Z,2.00
2023-03-29T18:57:09.084Z,1.50
2023-03-29T18:59:41.088Z,1.85
2023-03-29T19:02:12.805Z,1.77
2023-03-29T19:04:44.694Z,1.75
2023-03-29T19:07:17.750Z,2.20
2023-03-29T19:09:49.642Z,2.00
2023-03-29T19:12:21.141Z,1.98
2023-03-29T19:14:52.983Z,2.35
2023-03-29T19:17:24.525Z,2.10
2023-03-29T19:19:56.744Z,2.20
2023-03-29T19:22:28.230Z,2.03
2023-03-29T19:26:43.897Z,2.13
2023-03-29T19:29:15.788Z,2.22
2023-03-29T19:31:47.437Z,1.98
2023-03-29T19:34:19.415Z,1.45
2023-03-29T19:36:50.895Z,2.05
2023-03-29T19:39:22.717Z,1.20
2023-03-29T19:41:54.185Z,1.67
2023-03-29T19:44:26.101Z,1.15
2023-03-29T19:46:57.666Z,1.40
2023-03-29T19:49:29.518Z,1.65
2023-03-29T19:52:00.986Z,1.50
2023-03-29T19:54:32.479Z,1.92
2023-03-29T19:57:04.003Z,1.88
2023-03-29T19:59:35.879Z,1.70
2023-03-29T20:02:07.375Z,2.08
2023-03-29T20:04:39.088Z,2.00
2023-03-29T20:07:10.624Z,1.92
2023-03-29T20:09:45.068Z,1.17
2023-03-29T20:12:16.813Z,1.90
2023-03-29T20:14:48.338Z,1.35
2023-03-29T20:17:19.788Z,2.50
2023-03-29T20:19:51.571Z,2.17
2023-03-29T20:22:23.048Z,2.22
2023-03-29T20:24:54.547Z,2.17
2023-03-29T20:27:26.015Z,2.13
2023-03-29T20:29:57.496Z,2.00
2023-03-29T20:32:29.032Z,1.52
2023-03-29T20:35:00.568Z,0.95
2023-03-29T20:37:32.076Z,1.83
2023-03-29T20:40:03.932Z,2.08
2023-03-29T20:42:35.391Z,1.75
2023-03-29T20:45:07.073Z,2.08
2023-03-29T20:47:38.582Z,1.80
2023-03-29T20:50:10.381Z,1.73
2023-03-29T20:52:41.862Z,2.00
2023-03-29T20:55:13.753Z,1.52
2023-03-29T20:57:45.216Z,1.27
2023-03-29T21:00:16.877Z,1.27
2023-03-29T21:02:48.456Z,2.20
2023-03-29T21:05:20.322Z,1.58
2023-03-29T21:07:51.841Z,1.65
2023-03-29T21:10:23.681Z,1.63
2023-03-29T21:12:55.155Z,1.33
2023-03-29T21:15:26.654Z,1.83
2023-03-29T21:17:58.249Z,1.70
2023-03-29T21:20:30.097Z,1.63
2023-03-29T21:23:01.564Z,1.98
2023-03-29T21:25:33.321Z,1.42
2023-03-29T21:28:04.794Z,1.85
2023-03-29T21:30:36.644Z,2.25
2023-03-29T21:33:08.129Z,1.42
2023-03-29T21:35:39.931Z,1.85
2023-03-29T21:38:11.431Z,2.40
2023-03-29T21:40:42.913Z,1.73
2023-03-29T21:43:14.373Z,1.40
2023-03-29T21:45:45.844Z,1.27
2023-03-29T21:48:17.337Z,1.30
2023-03-29T21:50:48.831Z,1.73
2023-03-29T21:53:20.310Z,1.25
2023-03-29T21:55:52.102Z,1.70
2023-03-29T21:58:23.564Z,1.10
2023-03-29T22:00:55.124Z,1.60
2023-03-29T22:03:26.644Z,2.33
2023-03-29T22:05:58.169Z,1.38
2023-03-29T22:08:29.665Z,1.55
2023-03-29T22:11:01.288Z,1.65
2023-03-29T22:13:32.847Z,1.45
2023-03-29T22:16:04.447Z,1.40
2023-03-29T22:18:35.991Z,1.67
2023-03-29T22:21:07.779Z,1.25
2023-03-29T22:23:39.252Z,1.40
2023-03-29T22:26:11.106Z,1.75
2023-03-29T22:28:42.596Z,1.95
2023-03-29T22:31:14.412Z,1.77
2023-03-29T22:33:45.912Z,1.55
2023-03-29T22:36:17.628Z,1.63
2023-03-29T22:38:49.153Z,2.15
2023-03-29T22:41:20.943Z,1.50
2023-03-29T22:43:52.448Z,1.42
2023-03-29T22:46:24.359Z,2.25
2023-03-29T22:48:55.873Z,1.05
2023-03-29T22:51:27.448Z,1.15
2023-03-29T22:53:59.016Z,1.50
2023-03-29T22:56:30.626Z,1.98
2023-03-29T22:59:02.478Z,1.48
2023-03-29T23:01:34.138Z,1.60
2023-03-29T23:04:05.919Z,1.73
2023-03-29T23:06:37.389Z,1.10
2023-03-29T23:09:08.991Z,1.52
2023-03-29T23:11:40.453Z,1.67
2023-03-29T23:14:11.972Z,1.13
2023-03-29T23:16:43.458Z,1.52
2023-03-29T23:19:15.245Z,1.80
2023-03-29T23:21:46.740Z,2.03
2023-03-29T23:24:19.173Z,1.52
2023-03-29T23:26:50.807Z,1.63
2023-03-29T23:29:22.771Z,1.45
2023-03-29T23:31:54.309Z,1.75
2023-03-29T23:34:26.153Z,1.77
2023-03-29T23:36:57.619Z,1.50
2023-03-29T23:39:29.408Z,1.85
2023-03-29T23:42:00.887Z,1.60
2023-03-29T23:44:32.388Z,1.70
2023-03-29T23:47:03.879Z,1.60
2023-03-29T23:49:35.788Z,1.85
2023-03-29T23:52:07.285Z,1.20
2023-03-29T23:54:39.086Z,1.55
2023-03-29T23:57:10.673Z,1.50
2023-03-29T23:59:42.560Z,1.50
